Waarschuwingen Friesland

Code Groen. Er zijn momenteel geen waarschuwingen van kracht.

Bron: KNMI


Webcam Zuidwest  Webcam Zuidwest


Onweer radar more information blitzortung!


Regen radar more information rain snow radar


Weerstation Noordbergum

Weerstation Luyksgestel

Website Noardburgum


U vindt ons ook hier:

Het Weer Aktueel

UK Metoffice

European Weather Network

Weather Underground

AWEKAS

Citizen Weather Observer Program (CWOP)

HAMweather, WeatherForYou, PWS Weather



METAR rapporten vliegvelden

   
EHLW - Leeuwarden Rnlaf, Netherlands
Afstand tot: W 17 km
Gewijzigd: 26-05-2022 12:16
Grotendeels bewolkt  
Grotendeels bewolkt  
   Wind: Westen 25.9 km/h
Wind: Westen 25.9 km/h
Temperatuur: 16°C
Dauwpunt: 11°C
Vochtigheid: 72%
Barometer: 1018 hPa
Bewolking: Grotendeels bewolkt
Zicht: meer dan 10 km
Bewolking: Gedeeltelijk bewolkt 2100 ft,
Grotendeels bewolkt 2800 ft,
Grotendeels bewolkt 3700 ft
EHLW 261016Z AUTO 27014KT 230V300 9999 SCT021 BKN028 BKN037 16/11 Q1018 WHT
EHMA - Awg-1 Sea, Netherlands
Afstand tot: N 31 km
Gewijzigd: 26-05-2022 12:25
Licht bewolkt  
Licht bewolkt  
   Wind: Westen 29.6 km/h
Wind: Westen 29.6 km/h
Temperatuur: 14°C
Dauwpunt: 10°C
Vochtigheid: 77%
Barometer: 1018 hPa
Bewolking: Licht bewolkt
Zicht: meer dan 10 km
Bewolking: Licht bewolkt 3000 ft
EHMA 261025Z AUTO 27016KT 9999 FEW030 14/10 Q1018
EHGG - Groningen/Eelde, Netherlands
Afstand tot: OZO 40 km
Gewijzigd: 26-05-2022 12:25
Grotendeels bewolkt  
Grotendeels bewolkt  
   Wind: Westen 27.8 km/h
Wind: Westen 27.8 km/h
Temperatuur: 18°C
Dauwpunt: 9°C
Vochtigheid: 56%
Barometer: 1018 hPa
Bewolking: Grotendeels bewolkt
Zicht: meer dan 10 km
Bewolking: Licht bewolkt 3600 ft,
Grotendeels bewolkt 4100 ft,
Grotendeels bewolkt 4700 ft
EHGG 261025Z AUTO 26015KT 220V300 9999 FEW036 BKN041 BKN047 18/09 Q1018 NOSIG
EHVL - Vlieland Island, Netherlands
Afstand tot: W 72 km
Gewijzigd: 26-05-2022 12:25
Grotendeels bewolkt  
Grotendeels bewolkt  
   Wind: WZW 33.3 km/h
Wind: WZW 33.3 km/h
Temperatuur: 16°C
Dauwpunt: 11°C
Vochtigheid: 72%
Barometer: 1018 hPa
Bewolking: Grotendeels bewolkt
Zicht: meer dan 10 km
Bewolking: Gedeeltelijk bewolkt 8700 ft,
Grotendeels bewolkt 9300 ft,
Grotendeels bewolkt 10000 ft
EHVL 261025Z AUTO 25018KT 9999 SCT087 BKN093 BKN100 16/11 Q1018 BLU
EHMG - L9-Ff-1 Sea, Netherlands
Afstand tot: WNW 81 km
Gewijzigd: 26-05-2022 12:25
Gedeeltelijk bewolkt  
Gedeeltelijk bewolkt  
   Wind: WZW 37 km/h
Wind: WZW 37 km/h
Temperatuur: 13°C
Dauwpunt: 10°C
Vochtigheid: 82%
Barometer: 1019 hPa
Bewolking: Gedeeltelijk bewolkt
Zicht: meer dan 10 km
Bewolking: Gedeeltelijk bewolkt
EHMG 261025Z AUTO 25020KT 9999 NSC 13/10 Q1019
EHKD - De Kooy (navy), Netherlands
Afstand tot: WZW 89 km
Gewijzigd: 26-05-2022 12:25
Bewolking  
Bewolking  
   Wind: WZW 27.8 km/h
Wind: WZW 27.8 km/h
Temperatuur: 15°C
Dauwpunt: 12°C
Vochtigheid: 82%
Barometer: 1019 hPa
Bewolking: Bewolking
Zicht: meer dan 10 km
Bewolking: Grotendeels bewolkt 6700 ft,
Grotendeels bewolkt 9300 ft,
Bewolking 14000 ft
EHKD 261025Z AUTO 25015KT 220V280 9999 BKN067 BKN093 OVC140 15/12 Q1019 BLU NOSIG

Script ontwikkeld door  Saratoga-weather.org Aangepast voor de template door  Weerstation Leuven

Apparatuur in gebruik:

Weerstation
Davis Vantage pro 2

Weerprogramma
Meteobridge

Weercomputer
Meteobridge Nano SD

Webleverancier
Versio

Davis Vantage pro 2

Meteobridge

Meteobridge Nano SD

Versio